createdAt,value
2022-08-07T00:00:40.193Z,102113.34
2022-08-07T00:03:08.773Z,102117.81
2022-08-07T00:05:37.178Z,102119.44
2022-08-07T00:08:05.657Z,102110.06
2022-08-07T00:10:35.079Z,102108.41
2022-08-07T00:13:24.018Z,102108.75
2022-08-07T00:15:52.581Z,102107.66
2022-08-07T00:18:24.110Z,102106.50
2022-08-07T00:20:57.492Z,102099.56
2022-08-07T00:23:30.206Z,102106.22
2022-08-07T00:26:01.589Z,102100.13
2022-08-07T00:28:33.450Z,102093.00
2022-08-07T00:31:12.253Z,102091.56
2022-08-07T00:33:40.643Z,102090.72
2022-08-07T00:36:08.251Z,102096.75
2022-08-07T00:38:36.741Z,102089.53
2022-08-07T00:41:10.047Z,102084.94
2022-08-07T00:44:00.920Z,102085.66
2022-08-07T00:46:30.103Z,102092.13
2022-08-07T00:49:02.009Z,102091.50
2022-08-07T00:51:56.983Z,102092.22
2022-08-07T00:54:19.706Z,102087.66
2022-08-07T00:56:49.887Z,102088.41
2022-08-07T00:59:35.082Z,102089.41
2022-08-07T01:02:13.986Z,102092.59
2022-08-07T01:04:46.972Z,102088.13
2022-08-07T01:07:15.122Z,102084.84
2022-08-07T01:10:05.737Z,102068.28
2022-08-07T01:12:30.976Z,102072.28
2022-08-07T01:15:01.757Z,102072.28
2022-08-07T01:17:31.120Z,102070.16
2022-08-07T01:20:10.205Z,102064.72
2022-08-07T01:22:58.341Z,102063.78
2022-08-07T01:25:54.302Z,102061.72
2022-08-07T01:28:18.789Z,102070.09
2022-08-07T01:30:51.233Z,102066.19
2022-08-07T01:33:19.821Z,102073.16
2022-08-07T01:35:54.383Z,102066.72
2022-08-07T01:38:25.601Z,102057.31
2022-08-07T01:41:02.012Z,102062.97
2022-08-07T01:43:38.107Z,102054.25
2022-08-07T01:46:08.345Z,102048.28
2022-08-07T01:48:46.737Z,102055.69
2022-08-07T01:52:02.051Z,102048.19
2022-08-07T01:54:33.003Z,102054.78
2022-08-07T01:57:29.941Z,102053.00
2022-08-07T02:00:13.163Z,102051.53
2022-08-07T02:03:18.899Z,102056.91
2022-08-07T02:06:00.960Z,102056.28
2022-08-07T02:08:37.918Z,102048.88
2022-08-07T02:11:07.550Z,102049.72
2022-08-07T02:13:56.571Z,102056.09
2022-08-07T02:16:28.634Z,102055.00
2022-08-07T02:19:05.470Z,102052.69
2022-08-07T02:21:55.541Z,102054.22
2022-08-07T02:24:24.617Z,102056.41
2022-08-07T02:26:52.591Z,102050.66
2022-08-07T02:29:21.762Z,102053.50
2022-08-07T02:31:50.678Z,102049.22
2022-08-07T02:34:18.942Z,102049.84
2022-08-07T02:36:52.160Z,102043.97
2022-08-07T02:39:43.889Z,102049.91
2022-08-07T02:42:10.029Z,102044.34
2022-08-07T02:44:47.774Z,102039.41
2022-08-07T02:47:19.846Z,102049.97
2022-08-07T02:50:11.406Z,102042.25
2022-08-07T02:52:47.909Z,102044.44
2022-08-07T02:55:28.696Z,102045.97
2022-08-07T02:58:11.969Z,102042.94
2022-08-07T03:00:47.015Z,102041.31
2022-08-07T03:03:22.911Z,102048.22
2022-08-07T03:05:54.090Z,102045.59
2022-08-07T03:08:26.729Z,102048.28
2022-08-07T03:10:56.487Z,102042.19
2022-08-07T03:13:29.820Z,102051.13
2022-08-07T03:16:08.019Z,102049.19
2022-08-07T03:18:36.169Z,102043.91
2022-08-07T03:21:08.749Z,102050.81
2022-08-07T03:24:19.928Z,102046.88
2022-08-07T03:26:31.846Z,102046.59
2022-08-07T03:29:03.394Z,102048.75
2022-08-07T03:31:42.804Z,102049.59
2022-08-07T03:34:18.519Z,102043.97
2022-08-07T03:36:54.009Z,102038.41
2022-08-07T03:39:59.901Z,102037.78
2022-08-07T03:42:11.948Z,102038.75
2022-08-07T03:44:40.031Z,102039.41
2022-08-07T03:47:13.821Z,102034.13
2022-08-07T03:49:48.022Z,102036.94
2022-08-07T03:52:26.143Z,102033.84
2022-08-07T03:55:06.130Z,102037.78
2022-08-07T03:58:32.979Z,102032.72
2022-08-07T04:00:33.556Z,102041.09
2022-08-07T04:03:03.998Z,102034.00
2022-08-07T04:05:40.647Z,102033.59
2022-08-07T04:08:16.108Z,102038.78
2022-08-07T04:10:54.162Z,102023.34
2022-08-07T04:14:10.326Z,102029.94
2022-08-07T04:16:31.048Z,102030.13
2022-08-07T04:19:04.249Z,102025.19
2022-08-07T04:21:58.791Z,102034.28
2022-08-07T04:24:33.678Z,102031.78
2022-08-07T04:27:04.745Z,102032.63
2022-08-07T04:29:48.839Z,102041.69
2022-08-07T04:32:34.019Z,102039.94
2022-08-07T04:35:05.516Z,102045.50
2022-08-07T04:38:00.978Z,102041.94
2022-08-07T04:40:26.652Z,102050.94
2022-08-07T04:43:01.728Z,102057.72
2022-08-07T04:46:00.502Z,102056.72
2022-08-07T04:48:50.833Z,102048.84
2022-08-07T04:51:27.242Z,102053.28
2022-08-07T04:54:08.262Z,102059.53
2022-08-07T04:58:10.818Z,102046.69
2022-08-07T05:00:14.521Z,102053.44
2022-08-07T05:02:47.751Z,102042.88
2022-08-07T05:05:52.888Z,102043.44
2022-08-07T05:08:59.939Z,102046.53
2022-08-07T05:11:58.911Z,102047.88
2022-08-07T05:14:52.168Z,102047.47
2022-08-07T05:17:16.183Z,102059.38
2022-08-07T05:20:07.802Z,102057.38
2022-08-07T05:22:39.946Z,102062.13
2022-08-07T05:25:11.847Z,102065.00
2022-08-07T05:28:02.451Z,102060.38
2022-08-07T05:30:47.080Z,102059.91
2022-08-07T05:33:15.578Z,102061.69
2022-08-07T05:35:45.900Z,102060.97
2022-08-07T05:39:00.302Z,102062.91
2022-08-07T05:41:11.990Z,102066.09
2022-08-07T05:43:49.981Z,102077.84
2022-08-07T05:46:30.634Z,102075.53
2022-08-07T05:48:59.675Z,102079.94
2022-08-07T05:51:33.177Z,102080.69
2022-08-07T05:54:09.648Z,102084.78
2022-08-07T05:56:51.286Z,102077.84
2022-08-07T05:59:21.008Z,102085.25
2022-08-07T06:01:52.638Z,102085.91
2022-08-07T06:04:21.301Z,102084.38
2022-08-07T06:07:03.812Z,102095.50
2022-08-07T06:10:04.053Z,102095.75
2022-08-07T06:12:20.826Z,102086.38
2022-08-07T06:14:49.256Z,102090.41
2022-08-07T06:17:22.294Z,102097.28
2022-08-07T06:20:04.282Z,102089.47
2022-08-07T06:22:38.904Z,102100.34
2022-08-07T06:25:21.133Z,102094.97
2022-08-07T06:28:01.791Z,102094.31
2022-08-07T06:30:35.410Z,102092.03
2022-08-07T06:33:09.916Z,102088.81
2022-08-07T06:35:47.579Z,102091.09
2022-08-07T06:38:19.947Z,102089.03
2022-08-07T06:40:53.079Z,102085.53
2022-08-07T06:43:26.033Z,102088.19
2022-08-07T06:46:11.478Z,102081.44
2022-08-07T06:48:41.786Z,102081.50
2022-08-07T06:51:31.237Z,102080.00
2022-08-07T06:55:29.876Z,102076.78
2022-08-07T06:56:51.557Z,102078.97
2022-08-07T07:00:14.656Z,102071.72
2022-08-07T07:02:48.474Z,102078.41
2022-08-07T07:05:06.154Z,102074.56
2022-08-07T07:07:58.569Z,102076.38
2022-08-07T07:10:28.364Z,102074.78
2022-08-07T07:12:59.946Z,102076.41
2022-08-07T07:15:35.992Z,102081.09
2022-08-07T07:18:12.096Z,102088.84
2022-08-07T07:21:04.132Z,102068.84
2022-08-07T07:24:08.487Z,102071.97
2022-08-07T07:26:36.880Z,102074.22
2022-08-07T07:29:39.462Z,102078.88
2022-08-07T07:32:01.667Z,102074.97
2022-08-07T07:34:32.195Z,102071.47
2022-08-07T07:37:14.434Z,102074.47
2022-08-07T07:39:55.375Z,102068.66
2022-08-07T07:42:32.942Z,102069.31
2022-08-07T07:45:01.988Z,102072.38
2022-08-07T07:47:30.332Z,102076.47
2022-08-07T07:50:34.369Z,102073.81
2022-08-07T07:53:13.606Z,102064.53
2022-08-07T07:56:00.456Z,102058.00
2022-08-07T07:58:40.644Z,102064.34
2022-08-07T08:02:02.085Z,102064.78
2022-08-07T08:04:10.435Z,102061.53
2022-08-07T08:06:51.148Z,102057.84
2022-08-07T08:09:23.338Z,102047.63
2022-08-07T08:12:01.734Z,102054.41
2022-08-07T08:14:36.146Z,102055.56
2022-08-07T08:18:36.433Z,102057.47
2022-08-07T08:20:19.029Z,102054.75
2022-08-07T08:23:08.204Z,102052.53
2022-08-07T08:25:56.427Z,102054.13
2022-08-07T08:28:37.636Z,102035.31
2022-08-07T08:31:10.796Z,102043.75
2022-08-07T08:33:57.068Z,102042.13
2022-08-07T08:36:30.142Z,102044.78
2022-08-07T08:39:01.907Z,102037.19
2022-08-07T08:41:58.720Z,102039.06
2022-08-07T08:47:09.922Z,102036.22
2022-08-07T08:50:02.585Z,102033.72
2022-08-07T08:52:40.883Z,102036.78
2022-08-07T08:55:55.342Z,102042.72
2022-08-07T08:58:30.009Z,102037.41
2022-08-07T09:01:15.101Z,102030.63
2022-08-07T09:03:52.831Z,102033.72
2022-08-07T09:06:32.749Z,102021.00
2022-08-07T09:09:02.055Z,102025.88
2022-08-07T09:12:02.751Z,102023.66
2022-08-07T09:16:25.929Z,102023.91
2022-08-07T09:18:22.753Z,102017.97
2022-08-07T09:21:34.470Z,102015.47
2022-08-07T09:24:59.133Z,102009.00
2022-08-07T09:27:59.701Z,102006.53
2022-08-07T09:30:37.296Z,102010.53
2022-08-07T09:33:41.132Z,102009.38
2022-08-07T09:36:15.819Z,102014.69
2022-08-07T09:38:54.374Z,102012.47
2022-08-07T09:41:28.102Z,102014.56
2022-08-07T09:44:52.095Z,102010.09
2022-08-07T09:48:02.446Z,102013.69
2022-08-07T09:50:36.432Z,102001.53
2022-08-07T09:53:05.740Z,101999.56
2022-08-07T09:56:03.786Z,101996.16
2022-08-07T09:58:57.202Z,101995.28
2022-08-07T10:02:07.360Z,101990.38
2022-08-07T10:04:46.145Z,101990.97
2022-08-07T10:07:57.293Z,101984.72
2022-08-07T10:10:25.031Z,101984.09
2022-08-07T10:13:11.128Z,101980.69
2022-08-07T10:16:08.625Z,101977.06
2022-08-07T10:18:55.761Z,101983.91
2022-08-07T10:22:12.261Z,101975.34
2022-08-07T10:24:57.892Z,101978.53
2022-08-07T10:27:46.674Z,101964.91
2022-08-07T10:30:25.056Z,101973.06
2022-08-07T10:34:05.193Z,101962.94
2022-08-07T10:36:29.753Z,101962.31
2022-08-07T10:39:08.847Z,101951.56
2022-08-07T10:41:52.865Z,101956.38
2022-08-07T10:45:08.811Z,101955.41
2022-08-07T10:48:03.702Z,101954.06
2022-08-07T10:50:50.413Z,101954.78
2022-08-07T10:53:27.658Z,101938.81
2022-08-07T10:56:20.951Z,101935.94
2022-08-07T10:59:30.338Z,101938.78
2022-08-07T11:02:27.380Z,101937.44
2022-08-07T11:05:48.703Z,101929.63
2022-08-07T11:08:18.273Z,101925.31
2022-08-07T11:11:03.406Z,101918.50
2022-08-07T11:14:46.452Z,101918.84
2022-08-07T11:16:31.547Z,101913.03
2022-08-07T11:19:11.337Z,101912.38
2022-08-07T11:22:00.513Z,101910.06
2022-08-07T11:24:51.937Z,101901.00
2022-08-07T11:28:01.537Z,101899.75
2022-08-07T11:30:42.120Z,101899.84
2022-08-07T11:33:58.399Z,101898.34
2022-08-07T11:36:51.952Z,101890.19
2022-08-07T11:39:55.767Z,101896.00
2022-08-07T11:42:29.616Z,101892.63
2022-08-07T11:45:20.582Z,101886.97
2022-08-07T11:48:02.632Z,101887.19
2022-08-07T11:50:44.728Z,101878.22
2022-08-07T11:53:26.793Z,101879.69
2022-08-07T11:56:26.585Z,101879.97
2022-08-07T12:00:11.339Z,101878.34
2022-08-07T12:02:31.125Z,101878.63
2022-08-07T12:05:00.653Z,101878.63
2022-08-07T12:07:39.010Z,101864.31
2022-08-07T12:10:12.459Z,101872.44
2022-08-07T12:13:03.959Z,101881.19
2022-08-07T12:16:06.779Z,101868.41
2022-08-07T12:19:01.352Z,101873.66
2022-08-07T12:22:37.934Z,101872.00
2022-08-07T12:26:00.153Z,101878.41
2022-08-07T12:28:09.343Z,101876.31
2022-08-07T12:30:40.700Z,101871.38
2022-08-07T12:33:28.318Z,101867.78
2022-08-07T12:36:02.362Z,101856.56
2022-08-07T12:38:42.900Z,101851.78
2022-08-07T12:41:11.470Z,101848.03
2022-08-07T12:44:03.554Z,101845.66
2022-08-07T12:46:40.498Z,101850.56
2022-08-07T12:49:44.368Z,101853.00
2022-08-07T12:52:29.497Z,101842.06
2022-08-07T12:55:24.940Z,101843.34
2022-08-07T12:58:12.986Z,101834.59
2022-08-07T13:01:07.621Z,101844.66
2022-08-07T13:04:02.363Z,101836.66
2022-08-07T13:07:00.163Z,101831.66
2022-08-07T13:10:19.994Z,101829.53
2022-08-07T13:12:59.523Z,101833.06
2022-08-07T13:16:00.076Z,101829.69
2022-08-07T13:18:50.705Z,101820.78
2022-08-07T13:21:51.787Z,101830.97
2022-08-07T13:24:25.786Z,101831.41
2022-08-07T13:27:20.473Z,101828.38
2022-08-07T13:29:53.630Z,101821.38
2022-08-07T13:32:38.566Z,101811.41
2022-08-07T13:36:00.568Z,101817.44
2022-08-07T13:38:37.886Z,101803.25
2022-08-07T13:41:17.427Z,101806.91
2022-08-07T13:43:52.345Z,101804.66
2022-08-07T13:46:28.269Z,101802.72
2022-08-07T13:49:03.626Z,101798.28
2022-08-07T13:52:05.280Z,101794.16
2022-08-07T13:54:27.576Z,101794.50
2022-08-07T13:56:59.700Z,101792.25
2022-08-07T13:59:32.974Z,101793.81
2022-08-07T14:02:13.172Z,101790.25
2022-08-07T14:04:54.810Z,101787.53
2022-08-07T14:07:28.289Z,101780.34
2022-08-07T14:10:17.348Z,101775.16
2022-08-07T14:13:04.869Z,101778.59
2022-08-07T14:15:43.762Z,101777.88
2022-08-07T14:18:28.394Z,101780.13
2022-08-07T14:22:00.629Z,101777.06
2022-08-07T14:24:06.237Z,101775.03
2022-08-07T14:27:01.316Z,101766.03
2022-08-07T14:32:45.597Z,101771.13
2022-08-07T14:35:43.049Z,101767.22
2022-08-07T14:38:07.062Z,101761.84
2022-08-07T14:40:35.735Z,101756.63
2022-08-07T14:43:58.939Z,101754.22
2022-08-07T14:45:59.418Z,101752.63
2022-08-07T14:48:28.877Z,101755.09
2022-08-07T14:51:05.161Z,101754.94
2022-08-07T14:54:08.825Z,101760.94
2022-08-07T14:56:30.049Z,101750.81
2022-08-07T14:59:02.054Z,101746.53
2022-08-07T15:01:42.733Z,101745.63
2022-08-07T15:04:19.046Z,101753.13
2022-08-07T15:06:47.577Z,101747.00
2022-08-07T15:10:00.765Z,101752.31
2022-08-07T15:12:26.120Z,101747.03
2022-08-07T15:15:09.171Z,101749.53
2022-08-07T15:17:58.230Z,101741.19
2022-08-07T15:25:15.128Z,101741.06
2022-08-07T15:26:21.050Z,101742.69
2022-08-07T15:28:56.638Z,101748.50
2022-08-07T15:31:57.597Z,101731.50
2022-08-07T15:34:15.053Z,101736.09
2022-08-07T15:39:56.291Z,101734.41
2022-08-07T15:42:44.207Z,101733.69
2022-08-07T15:45:56.214Z,101724.84
2022-08-07T15:48:25.707Z,101731.53
2022-08-07T15:51:01.993Z,101721.25
2022-08-07T15:53:53.099Z,101723.34
2022-08-07T15:56:33.275Z,101730.06
2022-08-07T15:59:05.733Z,101716.34
2022-08-07T16:01:40.457Z,101710.97
2022-08-07T16:04:14.540Z,101716.25
2022-08-07T16:06:59.508Z,101712.88
2022-08-07T16:09:42.241Z,101704.34
2022-08-07T16:12:29.093Z,101715.47
2022-08-07T16:15:58.653Z,101709.31
2022-08-07T16:18:50.799Z,101708.44
2022-08-07T16:21:56.884Z,101701.84
2022-08-07T16:24:35.072Z,101701.84
2022-08-07T16:27:17.836Z,101708.41
2022-08-07T16:30:09.639Z,101705.63
2022-08-07T16:34:02.757Z,101706.88
2022-08-07T16:36:03.111Z,101708.09
2022-08-07T16:38:58.589Z,101705.53
2022-08-07T16:41:41.434Z,101708.53
2022-08-07T16:44:53.917Z,101704.44
2022-08-07T16:47:56.134Z,101697.97
2022-08-07T16:51:21.706Z,101706.81
2022-08-07T16:54:32.770Z,101701.94
2022-08-07T16:58:00.607Z,101697.97
2022-08-07T17:00:31.055Z,101696.91
2022-08-07T17:03:17.403Z,101697.84
2022-08-07T17:06:30.090Z,101699.41
2022-08-07T17:09:09.663Z,101694.88
2022-08-07T17:12:35.139Z,101700.94
2022-08-07T17:15:16.861Z,101696.88
2022-08-07T17:17:47.351Z,101700.81
2022-08-07T17:20:37.697Z,101699.66
2022-08-07T17:23:34.911Z,101694.81
2022-08-07T17:26:24.133Z,101698.06
2022-08-07T17:30:15.930Z,101700.50
2022-08-07T17:32:31.349Z,101710.47
2022-08-07T17:35:50.124Z,101708.59
2022-08-07T17:38:33.934Z,101704.94
2022-08-07T17:42:04.379Z,101703.53
2022-08-07T17:44:45.161Z,101712.69
2022-08-07T17:47:37.691Z,101706.53
2022-08-07T17:50:47.139Z,101716.94
2022-08-07T17:54:01.142Z,101706.38
2022-08-07T17:57:03.994Z,101702.44
2022-08-07T17:59:51.564Z,101711.16
2022-08-07T18:02:41.329Z,101711.13
2022-08-07T18:05:23.346Z,101715.75
2022-08-07T18:08:16.372Z,101713.03
2022-08-07T18:12:07.606Z,101716.69
2022-08-07T18:14:01.675Z,101717.97
2022-08-07T18:16:57.734Z,101717.78
2022-08-07T18:21:06.657Z,101729.44
2022-08-07T18:22:47.047Z,101723.03
2022-08-07T18:25:39.266Z,101728.69
2022-08-07T18:28:34.563Z,101729.38
2022-08-07T18:31:18.631Z,101736.78
2022-08-07T18:34:40.807Z,101739.38
2022-08-07T18:38:57.381Z,101733.94
2022-08-07T18:40:53.764Z,101740.84
2022-08-07T18:43:59.360Z,101742.66
2022-08-07T18:46:51.177Z,101745.84
2022-08-07T18:50:33.455Z,101749.13
2022-08-07T18:53:16.314Z,101751.34
2022-08-07T18:55:57.332Z,101755.16
2022-08-07T18:59:47.341Z,101753.81
2022-08-07T19:02:36.312Z,101761.41
2022-08-07T19:06:04.216Z,101769.31
2022-08-07T19:08:50.098Z,101777.66
2022-08-07T19:11:36.317Z,101764.22
2022-08-07T19:14:16.971Z,101767.78
2022-08-07T19:17:04.845Z,101774.25
2022-08-07T19:19:50.974Z,101776.34
2022-08-07T19:22:34.066Z,101782.47
2022-08-07T19:25:06.487Z,101790.06
2022-08-07T19:28:58.904Z,101784.19
2022-08-07T19:31:00.694Z,101790.13
2022-08-07T19:33:18.829Z,101791.81
2022-08-07T19:36:01.862Z,101790.03
2022-08-07T19:38:33.851Z,101804.22
2022-08-07T19:41:01.859Z,101802.72
2022-08-07T19:43:44.280Z,101810.38
2022-08-07T19:46:26.322Z,101809.78
2022-08-07T19:49:04.444Z,101809.94
2022-08-07T19:51:51.830Z,101810.44
2022-08-07T19:54:31.421Z,101812.28
2022-08-07T19:58:00.721Z,101815.59
2022-08-07T20:00:01.923Z,101816.97
2022-08-07T20:02:52.206Z,101815.66
2022-08-07T20:05:28.180Z,101817.00
2022-08-07T20:08:03.066Z,101810.59
2022-08-07T20:10:54.998Z,101809.72
2022-08-07T20:13:42.139Z,101814.06
2022-08-07T20:16:34.747Z,101812.13
2022-08-07T20:19:05.481Z,101816.34
2022-08-07T20:21:42.223Z,101822.88
2022-08-07T20:24:30.022Z,101820.28
2022-08-07T20:27:01.778Z,101818.03
2022-08-07T20:29:48.275Z,101822.22
2022-08-07T20:32:27.954Z,101819.13
2022-08-07T20:35:12.225Z,101813.63
2022-08-07T20:37:58.888Z,101818.13
2022-08-07T20:40:32.017Z,101815.06
2022-08-07T20:43:03.823Z,101823.06
2022-08-07T20:46:26.189Z,101825.53
2022-08-07T20:48:34.028Z,101823.03
2022-08-07T20:51:03.795Z,101821.84
2022-08-07T20:54:04.544Z,101821.09
2022-08-07T20:56:30.537Z,101818.88
2022-08-07T20:59:05.233Z,101832.34
2022-08-07T21:01:36.551Z,101833.09
2022-08-07T21:04:22.977Z,101835.66
2022-08-07T21:06:55.204Z,101829.75
2022-08-07T21:09:35.340Z,101831.38
2022-08-07T21:12:25.991Z,101828.53
2022-08-07T21:14:58.578Z,101829.81
2022-08-07T21:18:17.306Z,101828.41
2022-08-07T21:20:26.639Z,101825.13
2022-08-07T21:22:59.076Z,101826.59
2022-08-07T21:25:56.697Z,101832.06
2022-08-07T21:28:49.703Z,101839.06
2022-08-07T21:32:10.873Z,101835.38
2022-08-07T21:34:48.218Z,101835.25
2022-08-07T21:37:57.374Z,101841.97
2022-08-07T21:40:46.122Z,101841.75
2022-08-07T21:43:36.767Z,101846.88
2022-08-07T21:46:32.470Z,101849.94
2022-08-07T21:49:14.994Z,101843.44
2022-08-07T21:51:54.872Z,101845.88
2022-08-07T21:54:22.389Z,101849.50
2022-08-07T21:57:31.564Z,101858.13
2022-08-07T22:00:08.903Z,101861.19
2022-08-07T22:02:58.639Z,101862.25
2022-08-07T22:05:46.138Z,101863.22
2022-08-07T22:08:19.565Z,101869.19
2022-08-07T22:10:50.830Z,101861.81
2022-08-07T22:13:23.981Z,101861.41
2022-08-07T22:16:40.947Z,101867.38
2022-08-07T22:18:56.229Z,101867.34
2022-08-07T22:22:04.850Z,101868.19
2022-08-07T22:24:49.206Z,101867.56
2022-08-07T22:27:20.823Z,101861.44
2022-08-07T22:30:13.443Z,101865.13
2022-08-07T22:32:49.170Z,101870.00
2022-08-07T22:35:17.470Z,101871.44
2022-08-07T22:38:04.252Z,101880.41
2022-08-07T22:40:49.779Z,101875.53
2022-08-07T22:43:21.438Z,101882.69
2022-08-07T22:46:47.006Z,101878.78
2022-08-07T22:49:16.109Z,101878.31
2022-08-07T22:51:49.188Z,101882.22
2022-08-07T22:54:53.503Z,101882.06
2022-08-07T22:57:59.078Z,101885.91
2022-08-07T23:00:34.612Z,101876.28
2022-08-07T23:03:23.899Z,101877.31
2022-08-07T23:06:18.275Z,101886.09
2022-08-07T23:10:06.251Z,101876.47
2022-08-07T23:12:34.584Z,101881.63
2022-08-07T23:15:07.768Z,101882.41
2022-08-07T23:17:58.818Z,101887.28
2022-08-07T23:20:58.344Z,101877.72
2022-08-07T23:24:06.183Z,101882.19
2022-08-07T23:27:11.983Z,101881.41
2022-08-07T23:30:37.138Z,101882.81
2022-08-07T23:34:22.077Z,101893.97
2022-08-07T23:36:28.833Z,101889.31
2022-08-07T23:39:12.619Z,101886.63
2022-08-07T23:42:04.050Z,101878.91
2022-08-07T23:44:40.472Z,101880.94
2022-08-07T23:47:46.787Z,101882.75
2022-08-07T23:50:17.746Z,101886.38
2022-08-07T23:52:59.894Z,101883.34
2022-08-07T23:55:47.002Z,101878.44
2022-08-07T23:58:37.924Z,101878.25
